createdAt,value
2019-02-22T00:02:25.033Z,95.90
2019-02-22T00:04:57.010Z,95.80
2019-02-22T00:07:29.029Z,95.80
2019-02-22T00:10:01.083Z,95.70
2019-02-22T00:12:33.198Z,95.70
2019-02-22T00:15:05.619Z,95.60
2019-02-22T00:17:37.701Z,95.50
2019-02-22T00:20:10.224Z,95.50
2019-02-22T00:22:42.314Z,95.50
2019-02-22T00:25:14.361Z,95.70
2019-02-22T00:27:46.416Z,95.40
2019-02-22T00:30:18.473Z,95.30
2019-02-22T00:32:50.568Z,95.30
2019-02-22T00:35:22.698Z,95.30
2019-02-22T00:37:54.819Z,95.30
2019-02-22T00:40:26.793Z,95.30
2019-02-22T00:42:58.879Z,95.40
2019-02-22T00:45:30.945Z,95.60
2019-02-22T00:48:03.005Z,95.80
2019-02-22T00:50:35.049Z,96.00
2019-02-22T00:53:07.068Z,96.20
2019-02-22T00:55:39.154Z,96.50
2019-02-22T00:58:11.239Z,96.70
2019-02-22T01:00:43.243Z,96.70
2019-02-22T01:03:15.335Z,96.80
2019-02-22T01:05:47.450Z,96.80
2019-02-22T01:08:19.457Z,97.00
2019-02-22T01:10:51.466Z,97.00
2019-02-22T01:13:23.564Z,97.00
2019-02-22T01:15:55.650Z,97.10
2019-02-22T01:18:27.735Z,97.00
2019-02-22T01:20:59.741Z,97.10
2019-02-22T01:23:31.836Z,97.00
2019-02-22T01:26:03.936Z,97.00
2019-02-22T01:28:35.964Z,97.00
2019-02-22T01:31:08.148Z,97.00
2019-02-22T01:33:40.351Z,97.00
2019-02-22T01:36:12.425Z,96.90
2019-02-22T01:38:44.435Z,96.90
2019-02-22T01:41:16.442Z,96.90
2019-02-22T01:43:48.561Z,96.90
2019-02-22T01:46:20.562Z,96.70
2019-02-22T01:48:52.590Z,96.60
2019-02-22T01:51:24.674Z,96.60
2019-02-22T01:53:56.797Z,96.60
2019-02-22T01:56:28.887Z,96.60
2019-02-22T01:59:00.988Z,96.60
2019-02-22T02:01:33.008Z,96.50
2019-02-22T02:04:05.213Z,96.50
2019-02-22T02:06:37.422Z,96.50
2019-02-22T02:09:09.972Z,96.50
2019-02-22T02:11:42.028Z,96.50
2019-02-22T02:14:14.045Z,96.50
2019-02-22T02:16:46.055Z,96.60
2019-02-22T02:19:18.062Z,96.70
2019-02-22T02:21:50.258Z,96.80
2019-02-22T02:24:22.341Z,96.80
2019-02-22T02:26:54.436Z,96.80
2019-02-22T02:29:26.526Z,96.70
2019-02-22T02:31:58.601Z,96.70
2019-02-22T02:34:30.686Z,96.70
2019-02-22T02:37:02.785Z,96.70
2019-02-22T02:39:34.873Z,96.70
2019-02-22T02:42:06.875Z,96.70
2019-02-22T02:44:39.053Z,96.70
2019-02-22T02:47:11.062Z,96.80
2019-02-22T02:49:43.154Z,96.70
2019-02-22T02:52:15.168Z,96.70
2019-02-22T02:54:47.256Z,96.70
2019-02-22T02:57:19.338Z,96.70
2019-02-22T02:59:51.414Z,96.90
2019-02-22T03:02:26.897Z,97.00
2019-02-22T03:04:58.975Z,97.00
2019-02-22T03:07:47.307Z,97.00
2019-02-22T03:10:19.355Z,97.10
2019-02-22T03:12:51.431Z,97.20
2019-02-22T03:15:23.443Z,97.20
2019-02-22T03:17:55.519Z,97.30
2019-02-22T03:20:27.624Z,97.30
2019-02-22T03:22:59.710Z,97.30
2019-02-22T03:25:31.798Z,97.40
2019-02-22T03:28:03.885Z,97.40
2019-02-22T03:30:35.950Z,97.30
2019-02-22T03:33:07.980Z,97.40
2019-02-22T03:35:40.069Z,97.30
2019-02-22T03:38:12.157Z,97.30
2019-02-22T03:40:44.245Z,97.30
2019-02-22T03:43:16.325Z,97.30
2019-02-22T03:45:48.416Z,97.30
2019-02-22T03:48:20.502Z,97.30
2019-02-22T03:50:52.591Z,97.30
2019-02-22T03:53:28.201Z,97.40
2019-02-22T03:56:00.391Z,97.40
2019-02-22T03:58:32.586Z,97.40
2019-02-22T04:01:04.766Z,97.50
2019-02-22T04:03:36.842Z,97.60
2019-02-22T04:06:08.894Z,97.50
2019-02-22T04:08:40.977Z,97.50
2019-02-22T04:11:13.072Z,97.60
2019-02-22T04:13:45.167Z,97.60
2019-02-22T04:16:17.260Z,97.70
2019-02-22T04:18:49.336Z,97.70
2019-02-22T04:21:21.746Z,97.60
2019-02-22T04:23:53.754Z,97.50
2019-02-22T04:26:25.825Z,97.50
2019-02-22T04:28:57.914Z,97.50
2019-02-22T04:31:30.005Z,97.60
2019-02-22T04:34:02.082Z,97.60
2019-02-22T04:36:34.102Z,97.60
2019-02-22T04:39:06.853Z,97.60
2019-02-22T04:41:38.973Z,97.60
2019-02-22T04:44:11.053Z,97.60
2019-02-22T04:46:43.150Z,97.60
2019-02-22T04:49:15.237Z,97.60
2019-02-22T04:51:47.326Z,97.60
2019-02-22T04:54:19.412Z,97.60
2019-02-22T04:56:51.493Z,97.60
2019-02-22T04:59:23.569Z,97.60
2019-02-22T05:01:55.646Z,97.60
2019-02-22T05:04:27.659Z,97.50
2019-02-22T05:06:59.875Z,97.50
2019-02-22T05:09:32.068Z,97.60
2019-02-22T05:12:10.812Z,97.60
2019-02-22T05:14:37.892Z,97.60
2019-02-22T05:17:09.969Z,97.60
2019-02-22T05:19:42.043Z,97.50
2019-02-22T05:22:14.042Z,97.60
2019-02-22T05:24:46.050Z,97.70
2019-02-22T05:27:18.058Z,97.70
2019-02-22T05:29:50.064Z,97.70
2019-02-22T05:32:22.069Z,97.70
2019-02-22T05:34:54.149Z,97.80
2019-02-22T05:37:26.150Z,97.90
2019-02-22T05:39:58.163Z,97.90
2019-02-22T05:42:30.244Z,97.90
2019-02-22T05:45:02.330Z,97.90
2019-02-22T05:47:34.339Z,98.00
2019-02-22T05:50:06.451Z,98.00
2019-02-22T05:52:38.535Z,98.00
2019-02-22T05:55:10.733Z,97.90
2019-02-22T05:57:42.737Z,97.90
2019-02-22T06:00:15.736Z,97.90
2019-02-22T06:02:48.078Z,98.00
2019-02-22T06:05:20.187Z,97.90
2019-02-22T06:07:52.255Z,98.00
2019-02-22T06:10:24.289Z,98.00
2019-02-22T06:12:56.369Z,98.00
2019-02-22T06:15:31.164Z,97.90
2019-02-22T06:18:02.202Z,97.90
2019-02-22T06:20:34.293Z,98.00
2019-02-22T06:23:06.369Z,98.00
2019-02-22T06:25:38.445Z,98.00
2019-02-22T06:28:10.546Z,98.00
2019-02-22T06:30:42.543Z,97.90
2019-02-22T06:33:14.561Z,98.10
2019-02-22T06:35:46.623Z,97.80
2019-02-22T06:38:18.712Z,97.80
2019-02-22T06:40:50.842Z,97.60
2019-02-22T06:43:22.943Z,97.60
2019-02-22T06:45:55.011Z,97.80
2019-02-22T06:48:27.013Z,97.70
2019-02-22T06:50:59.095Z,97.70
2019-02-22T06:53:31.168Z,97.80
2019-02-22T06:56:03.163Z,97.80
2019-02-22T06:58:35.240Z,97.80
2019-02-22T07:01:07.261Z,97.70
2019-02-22T07:03:39.340Z,97.70
2019-02-22T07:06:11.387Z,97.70
2019-02-22T07:08:43.472Z,97.60
2019-02-22T07:11:40.105Z,97.60
2019-02-22T07:14:12.178Z,97.60
2019-02-22T07:16:44.222Z,97.60
2019-02-22T07:19:16.225Z,97.70
2019-02-22T07:21:52.854Z,97.80
2019-02-22T07:24:21.901Z,97.70
2019-02-22T07:26:53.870Z,97.70
2019-02-22T07:29:25.946Z,97.70
2019-02-22T07:32:05.782Z,97.70
2019-02-22T07:34:31.714Z,97.60
2019-02-22T07:37:03.680Z,97.60
2019-02-22T07:39:35.760Z,97.50
2019-02-22T07:42:07.836Z,97.50
2019-02-22T07:44:39.925Z,97.50
2019-02-22T07:47:11.966Z,97.50
2019-02-22T07:49:43.965Z,97.50
2019-02-22T07:52:15.966Z,97.50
2019-02-22T07:54:48.048Z,97.60
2019-02-22T07:57:20.406Z,97.60
2019-02-22T07:59:52.489Z,97.50
2019-02-22T08:02:24.505Z,97.70
2019-02-22T08:04:56.606Z,97.40
2019-02-22T08:07:28.708Z,95.90
2019-02-22T08:10:00.793Z,93.20
2019-02-22T08:12:33.270Z,90.50
2019-02-22T08:15:05.462Z,80.70
2019-02-22T08:17:37.464Z,75.50
2019-02-22T08:20:10.939Z,73.40
2019-02-22T08:22:43.033Z,71.00
2019-02-22T08:25:17.295Z,71.40
2019-02-22T08:27:53.935Z,71.60
2019-02-22T08:30:23.022Z,67.70
2019-02-22T08:32:55.118Z,61.10
2019-02-22T08:35:27.200Z,56.00
2019-02-22T08:37:59.300Z,53.30
2019-02-22T08:40:31.325Z,55.90
2019-02-22T08:43:03.330Z,63.90
2019-02-22T08:45:35.395Z,72.60
2019-02-22T08:48:07.411Z,77.60
2019-02-22T08:50:39.427Z,80.10
2019-02-22T08:53:11.512Z,78.80
2019-02-22T08:55:43.547Z,76.00
2019-02-22T08:58:15.633Z,68.70
2019-02-22T09:00:47.658Z,59.50
2019-02-22T09:03:19.753Z,52.90
2019-02-22T09:05:51.886Z,54.30
2019-02-22T09:08:23.895Z,53.60
2019-02-22T09:11:00.412Z,53.20
2019-02-22T09:13:29.668Z,59.30
2019-02-22T09:16:01.772Z,68.90
2019-02-22T09:18:33.786Z,76.10
2019-02-22T09:21:05.893Z,80.80
2019-02-22T09:23:37.983Z,84.20
2019-02-22T09:26:10.272Z,86.10
2019-02-22T09:28:42.347Z,88.50
2019-02-22T09:31:14.443Z,90.00
2019-02-22T09:33:46.454Z,90.30
2019-02-22T09:36:18.532Z,90.50
2019-02-22T09:38:50.541Z,90.70
2019-02-22T09:41:22.545Z,90.80
2019-02-22T09:43:55.846Z,91.00
2019-02-22T09:46:28.023Z,91.00
2019-02-22T09:49:00.134Z,91.20
2019-02-22T09:51:32.231Z,91.30
2019-02-22T09:54:04.249Z,91.20
2019-02-22T09:56:36.366Z,91.10
2019-02-22T09:59:08.452Z,91.10
2019-02-22T10:01:40.544Z,91.30
2019-02-22T10:04:12.733Z,91.40
2019-02-22T10:06:44.779Z,91.40
2019-02-22T10:09:16.798Z,91.40
2019-02-22T10:11:48.814Z,91.50
2019-02-22T10:14:20.894Z,91.40
2019-02-22T10:16:52.976Z,91.70
2019-02-22T10:19:25.046Z,91.70
2019-02-22T10:21:57.735Z,91.70
2019-02-22T10:24:29.851Z,91.90
2019-02-22T10:27:01.916Z,91.80
2019-02-22T10:29:34.002Z,91.80
2019-02-22T10:32:06.019Z,91.90
2019-02-22T10:34:38.042Z,91.90
2019-02-22T10:37:10.132Z,91.70
2019-02-22T10:39:42.279Z,91.70
2019-02-22T10:42:14.393Z,91.70
2019-02-22T10:44:46.405Z,91.80
2019-02-22T10:47:18.964Z,91.70
2019-02-22T10:49:51.017Z,91.60
2019-02-22T10:52:23.108Z,91.70
2019-02-22T10:54:55.142Z,91.90
2019-02-22T10:57:27.164Z,91.80
2019-02-22T10:59:59.267Z,91.50
2019-02-22T11:02:31.514Z,91.50
2019-02-22T11:05:03.671Z,91.50
2019-02-22T11:07:37.267Z,91.70
2019-02-22T11:10:11.267Z,91.80
2019-02-22T11:12:43.329Z,92.10
2019-02-22T11:15:15.860Z,92.30
2019-02-22T11:17:49.049Z,92.40
2019-02-22T11:20:21.013Z,93.00
2019-02-22T11:22:52.950Z,93.30
2019-02-22T11:25:24.873Z,93.30
2019-02-22T11:27:56.805Z,93.40
2019-02-22T11:30:28.832Z,93.50
2019-02-22T11:33:00.771Z,93.60
2019-02-22T11:35:32.689Z,93.80
2019-02-22T11:38:04.721Z,93.80
2019-02-22T11:40:36.666Z,93.80
2019-02-22T11:43:08.604Z,93.80
2019-02-22T11:45:40.760Z,93.70
2019-02-22T11:48:12.843Z,93.20
2019-02-22T11:50:44.930Z,93.20
2019-02-22T11:53:17.035Z,92.60
2019-02-22T11:55:49.229Z,92.50
2019-02-22T11:58:22.343Z,92.10
2019-02-22T12:00:54.423Z,92.00
2019-02-22T12:03:26.532Z,91.90
2019-02-22T12:05:58.619Z,91.90
2019-02-22T12:08:30.630Z,91.60
2019-02-22T12:11:02.684Z,91.50
2019-02-22T12:13:34.700Z,91.50
2019-02-22T12:16:06.773Z,91.60
2019-02-22T12:18:39.082Z,91.50
2019-02-22T12:21:11.104Z,91.60
2019-02-22T12:23:43.209Z,91.60
2019-02-22T12:26:15.304Z,91.60
2019-02-22T12:28:47.412Z,91.20
2019-02-22T12:31:19.490Z,90.90
2019-02-22T12:33:51.669Z,90.50
2019-02-22T12:36:23.645Z,90.40
2019-02-22T12:38:55.733Z,90.20
2019-02-22T12:41:27.746Z,90.20
2019-02-22T12:44:00.115Z,90.20
2019-02-22T12:46:32.219Z,90.00
2019-02-22T12:49:04.241Z,90.30
2019-02-22T12:51:36.249Z,90.20
2019-02-22T12:54:08.343Z,90.40
2019-02-22T12:56:57.934Z,90.50
2019-02-22T12:59:14.142Z,90.50
2019-02-22T13:01:46.513Z,90.40
2019-02-22T13:04:18.527Z,90.50
2019-02-22T13:06:50.736Z,90.50
2019-02-22T13:09:22.962Z,90.30
2019-02-22T13:11:55.015Z,90.40
2019-02-22T13:14:27.106Z,90.30
2019-02-22T13:16:59.111Z,90.10
2019-02-22T13:19:31.199Z,89.50
2019-02-22T13:22:03.282Z,88.80
2019-02-22T13:24:35.295Z,88.60
2019-02-22T13:27:07.751Z,87.90
2019-02-22T13:29:39.837Z,86.60
2019-02-22T13:32:11.880Z,85.80
2019-02-22T13:34:43.922Z,84.90
2019-02-22T13:37:15.931Z,84.60
2019-02-22T13:39:48.045Z,83.90
2019-02-22T13:42:20.102Z,84.00
2019-02-22T13:44:52.184Z,84.00
2019-02-22T13:47:24.368Z,84.20
2019-02-22T13:49:56.445Z,84.70
2019-02-22T13:52:28.541Z,84.80
2019-02-22T13:55:00.541Z,84.10
2019-02-22T13:57:32.643Z,83.80
2019-02-22T14:00:04.830Z,84.30
2019-02-22T14:02:37.732Z,84.40
2019-02-22T14:05:09.844Z,84.40
2019-02-22T14:07:50.975Z,84.30
2019-02-22T14:10:23.269Z,84.60
2019-02-22T14:12:55.266Z,84.80
2019-02-22T14:15:37.503Z,85.10
2019-02-22T14:18:01.090Z,85.20
2019-02-22T14:20:33.180Z,84.50
2019-02-22T14:23:05.274Z,84.60
2019-02-22T14:25:37.467Z,84.00
2019-02-22T14:28:12.022Z,84.20
2019-02-22T14:30:43.197Z,84.20
2019-02-22T14:33:15.288Z,84.40
2019-02-22T14:35:47.377Z,84.80
2019-02-22T14:38:19.492Z,84.30
2019-02-22T14:40:51.553Z,83.90
2019-02-22T14:43:23.563Z,83.60
2019-02-22T14:45:55.579Z,82.80
2019-02-22T14:48:27.652Z,83.00
2019-02-22T14:50:59.750Z,83.10
2019-02-22T14:53:31.853Z,83.60
2019-02-22T14:56:03.952Z,83.70
2019-02-22T14:58:36.043Z,84.00
2019-02-22T15:01:08.467Z,84.00
2019-02-22T15:03:40.557Z,83.90
2019-02-22T15:06:12.611Z,83.90
2019-02-22T15:08:44.655Z,83.90
2019-02-22T15:11:16.727Z,84.00
2019-02-22T15:13:48.765Z,84.30
2019-02-22T15:16:29.708Z,84.50
2019-02-22T15:19:01.801Z,84.30
2019-02-22T15:21:34.607Z,84.50
2019-02-22T15:24:06.720Z,83.70
2019-02-22T15:26:38.819Z,83.50
2019-02-22T15:29:10.910Z,83.80
2019-02-22T15:31:43.096Z,84.20
2019-02-22T15:34:15.188Z,85.10
2019-02-22T15:36:47.278Z,86.20
2019-02-22T15:39:19.378Z,86.40
2019-02-22T15:41:51.474Z,88.20
2019-02-22T15:44:23.568Z,87.60
2019-02-22T15:46:55.569Z,89.20
2019-02-22T15:49:27.538Z,89.90
2019-02-22T15:51:59.469Z,90.20
2019-02-22T15:54:31.400Z,90.10
2019-02-22T15:57:03.339Z,90.40
2019-02-22T15:59:35.271Z,90.70
2019-02-22T16:02:07.198Z,90.60
2019-02-22T16:04:46.653Z,90.60
2019-02-22T16:07:18.703Z,90.40
2019-02-22T16:09:50.743Z,90.20
2019-02-22T16:12:22.718Z,90.30
2019-02-22T16:14:54.641Z,90.40
2019-02-22T16:17:26.587Z,90.50
2019-02-22T16:19:58.518Z,90.90
2019-02-22T16:22:30.444Z,91.00
2019-02-22T16:25:02.375Z,91.00
2019-02-22T16:27:34.312Z,91.10
2019-02-22T16:30:10.719Z,90.90
2019-02-22T16:32:42.658Z,90.90
2019-02-22T16:35:14.802Z,90.80
2019-02-22T16:37:46.731Z,90.70
2019-02-22T16:40:18.652Z,90.40
2019-02-22T16:42:50.579Z,90.20
2019-02-22T16:45:22.502Z,90.10
2019-02-22T16:47:54.427Z,90.20
2019-02-22T16:50:26.359Z,90.10
2019-02-22T16:52:58.280Z,90.10
2019-02-22T16:55:30.207Z,90.50
2019-02-22T16:58:02.137Z,90.60
2019-02-22T17:00:34.071Z,90.60
2019-02-22T17:03:06.292Z,91.00
2019-02-22T17:05:38.301Z,91.00
2019-02-22T17:08:10.242Z,91.10
2019-02-22T17:10:42.207Z,91.20
2019-02-22T17:13:14.146Z,91.40
2019-02-22T17:15:46.080Z,91.40
2019-02-22T17:18:18.013Z,91.50
2019-02-22T17:20:49.946Z,91.50
2019-02-22T17:23:22.342Z,91.20
2019-02-22T17:25:54.289Z,91.20
2019-02-22T17:28:26.209Z,91.30
2019-02-22T17:30:58.148Z,91.40
2019-02-22T17:33:30.083Z,91.60
2019-02-22T17:36:04.291Z,91.70
2019-02-22T17:38:36.230Z,92.10
2019-02-22T17:41:08.159Z,92.30
2019-02-22T17:43:40.111Z,92.50
2019-02-22T17:46:12.030Z,92.70
2019-02-22T17:48:43.957Z,92.90
2019-02-22T17:51:15.897Z,92.90
2019-02-22T17:53:47.823Z,93.10
2019-02-22T17:56:19.765Z,93.30
2019-02-22T17:58:51.692Z,93.50
2019-02-22T18:01:23.624Z,93.60
2019-02-22T18:03:55.551Z,93.60
2019-02-22T18:06:27.508Z,93.60
2019-02-22T18:08:59.438Z,93.60
2019-02-22T18:11:31.371Z,93.60
2019-02-22T18:14:05.009Z,93.60
2019-02-22T18:16:36.925Z,93.70
2019-02-22T18:19:08.853Z,93.80
2019-02-22T18:21:40.789Z,93.80
2019-02-22T18:24:12.720Z,93.70
2019-02-22T18:26:44.653Z,93.60
2019-02-22T18:29:16.581Z,93.70
2019-02-22T18:31:48.509Z,93.70
2019-02-22T18:34:20.444Z,93.60
2019-02-22T18:36:52.372Z,93.60
2019-02-22T18:39:24.303Z,93.50
2019-02-22T18:41:56.242Z,93.40
2019-02-22T18:44:28.166Z,93.40
2019-02-22T18:47:00.094Z,93.30
2019-02-22T18:49:32.041Z,93.10
2019-02-22T18:52:03.981Z,93.00
2019-02-22T18:54:35.907Z,92.90
2019-02-22T18:57:07.845Z,92.70
2019-02-22T18:59:40.714Z,92.60
2019-02-22T19:02:12.644Z,92.50
2019-02-22T19:04:44.579Z,92.50
2019-02-22T19:07:16.633Z,92.50
2019-02-22T19:09:48.758Z,92.40
2019-02-22T19:12:20.688Z,92.30
2019-02-22T19:14:52.618Z,92.20
2019-02-22T19:17:30.370Z,92.10
2019-02-22T19:19:58.139Z,92.00
2019-02-22T19:22:30.065Z,92.20
2019-02-22T19:25:01.994Z,92.40
2019-02-22T19:27:33.937Z,92.60
2019-02-22T19:30:06.445Z,92.50
2019-02-22T19:32:38.376Z,92.60
2019-02-22T19:35:10.307Z,92.90
2019-02-22T19:37:42.233Z,93.00
2019-02-22T19:40:17.091Z,92.90
2019-02-22T19:42:49.025Z,92.90
2019-02-22T19:45:20.964Z,93.00
2019-02-22T19:47:52.897Z,93.10
2019-02-22T19:50:24.818Z,93.20
2019-02-22T19:52:56.748Z,93.10
2019-02-22T19:55:28.677Z,93.00
2019-02-22T19:58:00.605Z,92.90
2019-02-22T20:00:32.537Z,92.90
2019-02-22T20:03:04.473Z,92.80
2019-02-22T20:05:36.406Z,92.80
2019-02-22T20:08:08.341Z,92.70
2019-02-22T20:10:40.708Z,92.70
2019-02-22T20:13:12.648Z,92.60
2019-02-22T20:15:44.680Z,92.60
2019-02-22T20:18:16.608Z,92.80
2019-02-22T20:20:48.605Z,92.80
2019-02-22T20:23:20.530Z,92.90
2019-02-22T20:25:52.715Z,93.00
2019-02-22T20:28:24.876Z,93.10
2019-02-22T20:30:56.844Z,93.10
2019-02-22T20:33:28.768Z,93.00
2019-02-22T20:36:00.699Z,93.00
2019-02-22T20:38:32.630Z,93.00
2019-02-22T20:41:04.668Z,92.90
2019-02-22T20:43:36.607Z,93.10
2019-02-22T20:46:08.536Z,93.30
2019-02-22T20:48:40.469Z,93.40
2019-02-22T20:51:12.408Z,93.10
2019-02-22T20:53:44.490Z,93.20
2019-02-22T20:56:16.435Z,93.20
2019-02-22T20:58:48.365Z,93.20
2019-02-22T21:01:20.300Z,93.30
2019-02-22T21:03:52.220Z,93.20
2019-02-22T21:06:24.271Z,93.20
2019-02-22T21:08:56.249Z,93.10
2019-02-22T21:11:28.181Z,93.20
2019-02-22T21:14:00.133Z,93.20
2019-02-22T21:16:32.446Z,93.30
2019-02-22T21:19:04.470Z,93.60
2019-02-22T21:21:36.559Z,93.50
2019-02-22T21:24:08.583Z,93.40
2019-02-22T21:26:40.467Z,93.40
2019-02-22T21:29:12.410Z,93.40
2019-02-22T21:31:44.457Z,93.40
2019-02-22T21:34:16.433Z,93.30
2019-02-22T21:36:48.363Z,93.30
2019-02-22T21:39:20.300Z,93.40
2019-02-22T21:41:52.250Z,93.30
2019-02-22T21:44:24.186Z,93.30
2019-02-22T21:46:56.121Z,93.50
2019-02-22T21:49:28.179Z,93.50
2019-02-22T21:52:00.147Z,93.60
2019-02-22T21:54:32.410Z,93.70
2019-02-22T21:57:04.353Z,93.50
2019-02-22T21:59:36.249Z,93.50
2019-02-22T22:02:08.536Z,93.60
2019-02-22T22:04:40.431Z,93.40
2019-02-22T22:07:12.400Z,93.30
2019-02-22T22:09:44.443Z,93.30
2019-02-22T22:12:16.461Z,92.60
2019-02-22T22:14:48.802Z,92.80
2019-02-22T22:17:20.825Z,93.10
2019-02-22T22:19:52.784Z,93.70
2019-02-22T22:22:24.847Z,94.10
2019-02-22T22:24:56.861Z,94.00
2019-02-22T22:27:28.865Z,93.80
2019-02-22T22:30:00.964Z,94.00
2019-02-22T22:32:34.187Z,94.00
2019-02-22T22:35:06.559Z,93.90
2019-02-22T22:37:38.593Z,94.20
2019-02-22T22:40:11.510Z,94.20
2019-02-22T22:42:43.599Z,93.90
2019-02-22T22:45:15.826Z,94.00
2019-02-22T22:47:47.893Z,94.00
2019-02-22T22:50:20.881Z,94.10
2019-02-22T22:52:52.978Z,94.20
2019-02-22T22:55:25.054Z,94.10
2019-02-22T22:57:57.160Z,94.20
2019-02-22T23:01:09.835Z,94.30
2019-02-22T23:03:41.916Z,94.40
2019-02-22T23:06:15.459Z,94.30
2019-02-22T23:08:47.743Z,94.60
2019-02-22T23:11:20.146Z,95.40
2019-02-22T23:13:52.252Z,95.60
2019-02-22T23:16:24.452Z,95.50
2019-02-22T23:19:01.748Z,95.30
2019-02-22T23:21:30.352Z,95.30
2019-02-22T23:24:02.457Z,95.10
2019-02-22T23:26:34.484Z,95.00
2019-02-22T23:29:06.495Z,94.60
2019-02-22T23:31:38.583Z,94.40
2019-02-22T23:34:10.610Z,94.30
2019-02-22T23:36:42.605Z,93.70
2019-02-22T23:39:14.750Z,94.20
2019-02-22T23:41:47.077Z,94.20
2019-02-22T23:44:19.139Z,94.30
2019-02-22T23:46:51.149Z,94.40
2019-02-22T23:49:23.267Z,94.40
2019-02-22T23:51:55.345Z,94.40
2019-02-22T23:54:27.379Z,94.40
2019-02-22T23:56:59.460Z,94.50
2019-02-22T23:59:31.678Z,94.40
